Pettus, Arkansas
Current Conditions -  °F | °C
As of 10:58 AM on Saturday 20 Dec 2014 (Local Time) from KLRF Reporting Station
Overcast Overcast  
Wind Chill: 42°   Ceiling: 5000
Heat Index: 42°   Visibility: 10mi
Dew Point: 35°   Wind: 0mph
Humidity: 76%   Direction: NA
Pressure: 30.29"   Gusts: NA
Location:  34.7557°N, 91.9476°W
Report Text: KLRF 201658Z AUTO 00000KT 10SM OVC050 06/02 A3029 RMK AO2 SLP262 T00580019
Loading
Personal Weather Stations






























Interactive Weather Map New forecast layout! Learn more

10-Day Weather Forecast

Advertisements
Track Severe Weather on mobile